sensor_id;sensor_type;location;lat;lon;timestamp;P1;durP1;ratioP1;P2;durP2;ratioP2
7128;SDS011;3606;52.930;8.644;2024-03-02T00:02:01;16.57;;;11.57;;
7128;SDS011;3606;52.930;8.644;2024-03-02T00:04:27;15.43;;;11.10;;
7128;SDS011;3606;52.930;8.644;2024-03-02T00:06:52;17.17;;;11.13;;
7128;SDS011;3606;52.930;8.644;2024-03-02T00:09:19;15.20;;;11.17;;
7128;SDS011;3606;52.930;8.644;2024-03-02T00:11:45;16.80;;;10.87;;
7128;SDS011;3606;52.930;8.644;2024-03-02T00:14:11;15.97;;;11.20;;
7128;SDS011;3606;52.930;8.644;2024-03-02T00:16:37;19.87;;;11.97;;
7128;SDS011;3606;52.930;8.644;2024-03-02T00:19:03;16.30;;;11.80;;
7128;SDS011;3606;52.930;8.644;2024-03-02T00:21:30;19.73;;;10.50;;
7128;SDS011;3606;52.930;8.644;2024-03-02T00:23:57;15.47;;;11.10;;
7128;SDS011;3606;52.930;8.644;2024-03-02T00:26:23;18.50;;;11.93;;
7128;SDS011;3606;52.930;8.644;2024-03-02T00:28:48;15.87;;;10.37;;
7128;SDS011;3606;52.930;8.644;2024-03-02T00:31:15;17.20;;;10.57;;
7128;SDS011;3606;52.930;8.644;2024-03-02T00:33:45;16.33;;;10.33;;
7128;SDS011;3606;52.930;8.644;2024-03-02T00:36:12;14.17;;;10.03;;
7128;SDS011;3606;52.930;8.644;2024-03-02T00:38:42;17.10;;;10.67;;
7128;SDS011;3606;52.930;8.644;2024-03-02T00:41:23;13.60;;;9.67;;
7128;SDS011;3606;52.930;8.644;2024-03-02T00:44:00;15.63;;;10.53;;
7128;SDS011;3606;52.930;8.644;2024-03-02T00:49:10;15.60;;;9.40;;
7128;SDS011;3606;52.930;8.644;2024-03-02T00:51:42;13.43;;;9.47;;
7128;SDS011;3606;52.930;8.644;2024-03-02T00:54:13;12.87;;;9.13;;
7128;SDS011;3606;52.930;8.644;2024-03-02T00:56:40;13.10;;;8.57;;
7128;SDS011;3606;52.930;8.644;2024-03-02T00:59:07;12.50;;;8.80;;
7128;SDS011;3606;52.930;8.644;2024-03-02T01:01:33;13.80;;;9.10;;
7128;SDS011;3606;52.930;8.644;2024-03-02T01:03:59;13.13;;;8.70;;
7128;SDS011;3606;52.930;8.644;2024-03-02T01:06:25;12.80;;;8.33;;
7128;SDS011;3606;52.930;8.644;2024-03-02T01:08:50;15.50;;;9.13;;
7128;SDS011;3606;52.930;8.644;2024-03-02T01:11:16;15.50;;;8.77;;
7128;SDS011;3606;52.930;8.644;2024-03-02T01:13:43;13.83;;;9.00;;
7128;SDS011;3606;52.930;8.644;2024-03-02T01:16:09;11.67;;;8.37;;
7128;SDS011;3606;52.930;8.644;2024-03-02T01:18:34;11.60;;;8.00;;
7128;SDS011;3606;52.930;8.644;2024-03-02T01:21:00;12.03;;;8.50;;
7128;SDS011;3606;52.930;8.644;2024-03-02T01:23:26;11.60;;;8.30;;
7128;SDS011;3606;52.930;8.644;2024-03-02T01:25:52;11.87;;;7.93;;
7128;SDS011;3606;52.930;8.644;2024-03-02T01:28:18;11.30;;;7.93;;
7128;SDS011;3606;52.930;8.644;2024-03-02T01:30:45;11.90;;;8.10;;
7128;SDS011;3606;52.930;8.644;2024-03-02T01:33:12;10.20;;;7.90;;
7128;SDS011;3606;52.930;8.644;2024-03-02T01:35:38;11.47;;;7.70;;
7128;SDS011;3606;52.930;8.644;2024-03-02T01:38:03;13.53;;;8.13;;
7128;SDS011;3606;52.930;8.644;2024-03-02T01:40:33;16.40;;;8.53;;
7128;SDS011;3606;52.930;8.644;2024-03-02T01:42:59;11.60;;;8.57;;
7128;SDS011;3606;52.930;8.644;2024-03-02T01:45:25;11.53;;;8.03;;
7128;SDS011;3606;52.930;8.644;2024-03-02T01:47:51;9.07;;;7.37;;
7128;SDS011;3606;52.930;8.644;2024-03-02T01:50:38;11.23;;;7.60;;
7128;SDS011;3606;52.930;8.644;2024-03-02T01:53:03;11.30;;;7.53;;
7128;SDS011;3606;52.930;8.644;2024-03-02T01:55:28;10.30;;;7.67;;
7128;SDS011;3606;52.930;8.644;2024-03-02T01:57:55;11.47;;;8.07;;
7128;SDS011;3606;52.930;8.644;2024-03-02T02:00:21;10.47;;;8.27;;
7128;SDS011;3606;52.930;8.644;2024-03-02T02:02:49;11.23;;;8.57;;
7128;SDS011;3606;52.930;8.644;2024-03-02T02:05:15;12.67;;;8.70;;
7128;SDS011;3606;52.930;8.644;2024-03-02T02:07:41;14.57;;;8.37;;
7128;SDS011;3606;52.930;8.644;2024-03-02T02:10:08;11.63;;;8.30;;
7128;SDS011;3606;52.930;8.644;2024-03-02T02:12:35;11.97;;;8.10;;
7128;SDS011;3606;52.930;8.644;2024-03-02T02:15:01;12.13;;;8.17;;
7128;SDS011;3606;52.930;8.644;2024-03-02T02:17:27;11.20;;;8.53;;
7128;SDS011;3606;52.930;8.644;2024-03-02T02:19:53;11.93;;;8.00;;
7128;SDS011;3606;52.930;8.644;2024-03-02T02:22:20;12.80;;;8.90;;
7128;SDS011;3606;52.930;8.644;2024-03-02T02:24:45;11.87;;;9.00;;
7128;SDS011;3606;52.930;8.644;2024-03-02T02:27:11;13.27;;;8.77;;
7128;SDS011;3606;52.930;8.644;2024-03-02T02:29:40;12.37;;;8.43;;
7128;SDS011;3606;52.930;8.644;2024-03-02T02:32:06;12.60;;;9.07;;
7128;SDS011;3606;52.930;8.644;2024-03-02T02:34:31;11.83;;;8.30;;
7128;SDS011;3606;52.930;8.644;2024-03-02T02:36:58;13.17;;;9.00;;
7128;SDS011;3606;52.930;8.644;2024-03-02T02:39:24;12.90;;;8.73;;
7128;SDS011;3606;52.930;8.644;2024-03-02T02:41:49;13.43;;;8.77;;
7128;SDS011;3606;52.930;8.644;2024-03-02T02:44:15;15.40;;;10.10;;
7128;SDS011;3606;52.930;8.644;2024-03-02T02:46:41;12.83;;;8.33;;
7128;SDS011;3606;52.930;8.644;2024-03-02T02:49:06;13.30;;;9.37;;
7128;SDS011;3606;52.930;8.644;2024-03-02T02:51:32;14.73;;;9.33;;
7128;SDS011;3606;52.930;8.644;2024-03-02T02:53:58;12.70;;;9.30;;
7128;SDS011;3606;52.930;8.644;2024-03-02T02:56:23;13.83;;;9.57;;
7128;SDS011;3606;52.930;8.644;2024-03-02T02:58:49;13.50;;;9.70;;
7128;SDS011;3606;52.930;8.644;2024-03-02T03:01:15;12.50;;;8.90;;
7128;SDS011;3606;52.930;8.644;2024-03-02T03:03:44;13.70;;;9.60;;
7128;SDS011;3606;52.930;8.644;2024-03-02T03:06:10;14.93;;;9.87;;
7128;SDS011;3606;52.930;8.644;2024-03-02T03:08:36;14.70;;;9.57;;
7128;SDS011;3606;52.930;8.644;2024-03-02T03:11:02;13.40;;;9.83;;
7128;SDS011;3606;52.930;8.644;2024-03-02T03:13:28;13.47;;;9.27;;
7128;SDS011;3606;52.930;8.644;2024-03-02T03:15:54;11.80;;;8.63;;
7128;SDS011;3606;52.930;8.644;2024-03-02T03:18:19;14.33;;;10.00;;
7128;SDS011;3606;52.930;8.644;2024-03-02T03:20:45;13.47;;;9.50;;
7128;SDS011;3606;52.930;8.644;2024-03-02T03:23:10;17.10;;;9.37;;
7128;SDS011;3606;52.930;8.644;2024-03-02T03:25:40;13.67;;;9.63;;
7128;SDS011;3606;52.930;8.644;2024-03-02T03:28:06;15.30;;;9.07;;
7128;SDS011;3606;52.930;8.644;2024-03-02T03:30:34;14.53;;;9.10;;
7128;SDS011;3606;52.930;8.644;2024-03-02T03:33:00;16.70;;;9.83;;
7128;SDS011;3606;52.930;8.644;2024-03-02T03:35:26;13.67;;;9.50;;
7128;SDS011;3606;52.930;8.644;2024-03-02T03:37:52;15.57;;;10.50;;
7128;SDS011;3606;52.930;8.644;2024-03-02T03:40:17;15.00;;;10.00;;
7128;SDS011;3606;52.930;8.644;2024-03-02T03:42:43;13.77;;;9.67;;
7128;SDS011;3606;52.930;8.644;2024-03-02T03:45:09;13.73;;;9.87;;
7128;SDS011;3606;52.930;8.644;2024-03-02T03:47:35;15.50;;;10.03;;
7128;SDS011;3606;52.930;8.644;2024-03-02T03:50:01;16.27;;;10.73;;
7128;SDS011;3606;52.930;8.644;2024-03-02T03:52:29;13.63;;;8.77;;
7128;SDS011;3606;52.930;8.644;2024-03-02T03:54:55;14.87;;;9.87;;
7128;SDS011;3606;52.930;8.644;2024-03-02T03:57:20;13.67;;;9.67;;
7128;SDS011;3606;52.930;8.644;2024-03-02T03:59:46;16.03;;;10.07;;
7128;SDS011;3606;52.930;8.644;2024-03-02T04:02:11;14.43;;;10.10;;
7128;SDS011;3606;52.930;8.644;2024-03-02T04:04:38;13.60;;;9.10;;
7128;SDS011;3606;52.930;8.644;2024-03-02T04:07:03;13.90;;;9.00;;
7128;SDS011;3606;52.930;8.644;2024-03-02T04:09:29;14.97;;;9.90;;
7128;SDS011;3606;52.930;8.644;2024-03-02T04:11:54;13.47;;;9.50;;
7128;SDS011;3606;52.930;8.644;2024-03-02T04:14:20;16.73;;;10.20;;
7128;SDS011;3606;52.930;8.644;2024-03-02T04:16:46;16.07;;;9.93;;
7128;SDS011;3606;52.930;8.644;2024-03-02T04:19:12;13.63;;;9.43;;
7128;SDS011;3606;52.930;8.644;2024-03-02T04:21:37;14.73;;;9.83;;
7128;SDS011;3606;52.930;8.644;2024-03-02T04:24:03;15.33;;;9.67;;
7128;SDS011;3606;52.930;8.644;2024-03-02T04:26:29;13.93;;;10.17;;
7128;SDS011;3606;52.930;8.644;2024-03-02T04:28:54;15.23;;;10.60;;
7128;SDS011;3606;52.930;8.644;2024-03-02T04:31:20;14.17;;;10.43;;
7128;SDS011;3606;52.930;8.644;2024-03-02T04:33:46;16.70;;;10.27;;
7128;SDS011;3606;52.930;8.644;2024-03-02T04:36:11;13.03;;;9.60;;
7128;SDS011;3606;52.930;8.644;2024-03-02T04:38:38;14.07;;;9.97;;
7128;SDS011;3606;52.930;8.644;2024-03-02T04:41:04;11.90;;;9.00;;
7128;SDS011;3606;52.930;8.644;2024-03-02T04:43:33;18.23;;;10.63;;
7128;SDS011;3606;52.930;8.644;2024-03-02T04:45:59;17.60;;;9.73;;
7128;SDS011;3606;52.930;8.644;2024-03-02T04:48:25;11.77;;;8.80;;
7128;SDS011;3606;52.930;8.644;2024-03-02T04:50:51;18.43;;;9.83;;
7128;SDS011;3606;52.930;8.644;2024-03-02T04:53:17;14.40;;;9.67;;
7128;SDS011;3606;52.930;8.644;2024-03-02T04:55:42;15.33;;;9.80;;
7128;SDS011;3606;52.930;8.644;2024-03-02T04:58:08;14.67;;;10.10;;
7128;SDS011;3606;52.930;8.644;2024-03-02T05:00:34;13.77;;;9.90;;
7128;SDS011;3606;52.930;8.644;2024-03-02T05:03:00;15.17;;;10.50;;
7128;SDS011;3606;52.930;8.644;2024-03-02T05:05:26;13.53;;;10.23;;
7128;SDS011;3606;52.930;8.644;2024-03-02T05:07:51;13.50;;;9.87;;
7128;SDS011;3606;52.930;8.644;2024-03-02T05:10:17;14.17;;;9.07;;
7128;SDS011;3606;52.930;8.644;2024-03-02T05:12:43;14.73;;;9.73;;
7128;SDS011;3606;52.930;8.644;2024-03-02T05:15:09;14.83;;;9.93;;
7128;SDS011;3606;52.930;8.644;2024-03-02T05:17:36;15.10;;;9.97;;
7128;SDS011;3606;52.930;8.644;2024-03-02T05:20:06;15.57;;;10.67;;
7128;SDS011;3606;52.930;8.644;2024-03-02T05:22:35;15.73;;;10.27;;
7128;SDS011;3606;52.930;8.644;2024-03-02T05:25:02;14.20;;;9.93;;
7128;SDS011;3606;52.930;8.644;2024-03-02T05:27:29;13.40;;;9.60;;
7128;SDS011;3606;52.930;8.644;2024-03-02T05:29:55;16.83;;;10.33;;
7128;SDS011;3606;52.930;8.644;2024-03-02T05:32:27;19.00;;;10.13;;
7128;SDS011;3606;52.930;8.644;2024-03-02T05:34:52;14.07;;;10.50;;
7128;SDS011;3606;52.930;8.644;2024-03-02T05:37:18;14.13;;;9.67;;
7128;SDS011;3606;52.930;8.644;2024-03-02T05:39:45;16.27;;;10.10;;
7128;SDS011;3606;52.930;8.644;2024-03-02T05:42:10;14.37;;;9.80;;
7128;SDS011;3606;52.930;8.644;2024-03-02T05:44:36;15.83;;;10.13;;
7128;SDS011;3606;52.930;8.644;2024-03-02T05:47:02;17.77;;;10.77;;
7128;SDS011;3606;52.930;8.644;2024-03-02T05:49:28;16.17;;;9.80;;
7128;SDS011;3606;52.930;8.644;2024-03-02T05:51:54;16.57;;;11.13;;
7128;SDS011;3606;52.930;8.644;2024-03-02T05:54:20;15.33;;;10.00;;
7128;SDS011;3606;52.930;8.644;2024-03-02T05:56:46;13.77;;;9.47;;
7128;SDS011;3606;52.930;8.644;2024-03-02T05:59:11;14.63;;;9.90;;
7128;SDS011;3606;52.930;8.644;2024-03-02T06:01:38;15.83;;;9.60;;
7128;SDS011;3606;52.930;8.644;2024-03-02T06:04:07;16.83;;;10.23;;
7128;SDS011;3606;52.930;8.644;2024-03-02T06:06:34;17.07;;;10.47;;
7128;SDS011;3606;52.930;8.644;2024-03-02T06:09:02;15.67;;;9.80;;
7128;SDS011;3606;52.930;8.644;2024-03-02T06:11:35;14.23;;;10.23;;
7128;SDS011;3606;52.930;8.644;2024-03-02T06:14:02;14.67;;;9.60;;
7128;SDS011;3606;52.930;8.644;2024-03-02T06:16:31;15.37;;;10.23;;
7128;SDS011;3606;52.930;8.644;2024-03-02T06:18:57;14.40;;;10.40;;
7128;SDS011;3606;52.930;8.644;2024-03-02T06:21:23;16.13;;;11.10;;
7128;SDS011;3606;52.930;8.644;2024-03-02T06:23:49;16.53;;;10.70;;
7128;SDS011;3606;52.930;8.644;2024-03-02T06:26:15;15.17;;;10.87;;
7128;SDS011;3606;52.930;8.644;2024-03-02T06:28:41;17.90;;;11.50;;
7128;SDS011;3606;52.930;8.644;2024-03-02T06:31:06;17.83;;;11.07;;
7128;SDS011;3606;52.930;8.644;2024-03-02T06:33:32;17.93;;;11.53;;
7128;SDS011;3606;52.930;8.644;2024-03-02T06:35:58;14.17;;;10.20;;
7128;SDS011;3606;52.930;8.644;2024-03-02T06:38:23;16.57;;;11.10;;
7128;SDS011;3606;52.930;8.644;2024-03-02T06:40:49;15.13;;;9.87;;
7128;SDS011;3606;52.930;8.644;2024-03-02T06:43:15;15.90;;;10.43;;
7128;SDS011;3606;52.930;8.644;2024-03-02T06:45:40;15.17;;;10.10;;
7128;SDS011;3606;52.930;8.644;2024-03-02T06:48:06;15.80;;;10.43;;
7128;SDS011;3606;52.930;8.644;2024-03-02T06:50:32;16.03;;;10.33;;
7128;SDS011;3606;52.930;8.644;2024-03-02T06:52:57;16.07;;;10.63;;
7128;SDS011;3606;52.930;8.644;2024-03-02T06:55:23;14.30;;;10.70;;
7128;SDS011;3606;52.930;8.644;2024-03-02T06:57:52;13.80;;;9.90;;
7128;SDS011;3606;52.930;8.644;2024-03-02T07:00:18;13.93;;;9.77;;
7128;SDS011;3606;52.930;8.644;2024-03-02T07:02:45;17.90;;;10.47;;
7128;SDS011;3606;52.930;8.644;2024-03-02T07:05:11;15.33;;;9.90;;
7128;SDS011;3606;52.930;8.644;2024-03-02T07:07:36;15.83;;;10.90;;
7128;SDS011;3606;52.930;8.644;2024-03-02T07:10:05;16.70;;;10.73;;
7128;SDS011;3606;52.930;8.644;2024-03-02T07:12:32;14.60;;;10.37;;
7128;SDS011;3606;52.930;8.644;2024-03-02T07:14:58;15.50;;;11.17;;
7128;SDS011;3606;52.930;8.644;2024-03-02T07:17:29;15.13;;;10.80;;
7128;SDS011;3606;52.930;8.644;2024-03-02T07:19:56;17.50;;;10.40;;
7128;SDS011;3606;52.930;8.644;2024-03-02T07:22:22;15.03;;;10.43;;
7128;SDS011;3606;52.930;8.644;2024-03-02T07:24:48;15.27;;;9.97;;
7128;SDS011;3606;52.930;8.644;2024-03-02T07:27:14;14.33;;;10.47;;
7128;SDS011;3606;52.930;8.644;2024-03-02T07:29:41;16.47;;;10.87;;
7128;SDS011;3606;52.930;8.644;2024-03-02T07:32:07;16.97;;;10.20;;
7128;SDS011;3606;52.930;8.644;2024-03-02T07:34:33;15.93;;;10.10;;
7128;SDS011;3606;52.930;8.644;2024-03-02T07:36:59;16.87;;;10.73;;
7128;SDS011;3606;52.930;8.644;2024-03-02T07:39:25;15.97;;;9.97;;
7128;SDS011;3606;52.930;8.644;2024-03-02T07:41:51;17.60;;;10.73;;
7128;SDS011;3606;52.930;8.644;2024-03-02T07:44:17;13.77;;;9.97;;
7128;SDS011;3606;52.930;8.644;2024-03-02T07:46:44;16.00;;;10.30;;
7128;SDS011;3606;52.930;8.644;2024-03-02T07:49:17;16.33;;;11.60;;
7128;SDS011;3606;52.930;8.644;2024-03-02T07:51:43;15.30;;;10.47;;
7128;SDS011;3606;52.930;8.644;2024-03-02T07:54:09;18.10;;;11.90;;
7128;SDS011;3606;52.930;8.644;2024-03-02T07:56:35;16.20;;;10.50;;
7128;SDS011;3606;52.930;8.644;2024-03-02T07:59:01;17.70;;;10.47;;
7128;SDS011;3606;52.930;8.644;2024-03-02T08:01:28;15.90;;;10.80;;
7128;SDS011;3606;52.930;8.644;2024-03-02T08:03:57;16.07;;;10.90;;
7128;SDS011;3606;52.930;8.644;2024-03-02T08:06:28;17.33;;;10.63;;
7128;SDS011;3606;52.930;8.644;2024-03-02T08:08:54;18.33;;;11.37;;
7128;SDS011;3606;52.930;8.644;2024-03-02T08:11:21;14.53;;;10.70;;
7128;SDS011;3606;52.930;8.644;2024-03-02T08:13:47;15.13;;;11.33;;
7128;SDS011;3606;52.930;8.644;2024-03-02T08:16:14;17.63;;;11.10;;
7128;SDS011;3606;52.930;8.644;2024-03-02T08:18:41;17.63;;;10.83;;
7128;SDS011;3606;52.930;8.644;2024-03-02T08:21:07;15.33;;;10.17;;
7128;SDS011;3606;52.930;8.644;2024-03-02T08:23:33;14.77;;;10.57;;
7128;SDS011;3606;52.930;8.644;2024-03-02T08:25:59;15.00;;;9.80;;
7128;SDS011;3606;52.930;8.644;2024-03-02T08:28:25;13.77;;;10.10;;
7128;SDS011;3606;52.930;8.644;2024-03-02T08:30:50;11.83;;;8.93;;
7128;SDS011;3606;52.930;8.644;2024-03-02T08:33:16;14.37;;;10.07;;
7128;SDS011;3606;52.930;8.644;2024-03-02T08:35:42;14.00;;;9.77;;
7128;SDS011;3606;52.930;8.644;2024-03-02T08:38:08;15.07;;;9.43;;
7128;SDS011;3606;52.930;8.644;2024-03-02T08:40:33;13.10;;;9.13;;
7128;SDS011;3606;52.930;8.644;2024-03-02T08:42:59;12.33;;;9.27;;
7128;SDS011;3606;52.930;8.644;2024-03-02T08:45:25;11.87;;;8.67;;
7128;SDS011;3606;52.930;8.644;2024-03-02T08:47:50;17.83;;;9.07;;
7128;SDS011;3606;52.930;8.644;2024-03-02T08:50:16;13.00;;;8.20;;
7128;SDS011;3606;52.930;8.644;2024-03-02T08:52:41;12.83;;;8.80;;
7128;SDS011;3606;52.930;8.644;2024-03-02T08:55:08;11.60;;;8.20;;
7128;SDS011;3606;52.930;8.644;2024-03-02T08:57:33;10.60;;;8.00;;
7128;SDS011;3606;52.930;8.644;2024-03-02T08:59:59;11.00;;;8.07;;
7128;SDS011;3606;52.930;8.644;2024-03-02T09:02:25;12.10;;;8.73;;
7128;SDS011;3606;52.930;8.644;2024-03-02T09:04:51;10.70;;;8.03;;
7128;SDS011;3606;52.930;8.644;2024-03-02T09:07:17;11.27;;;8.40;;
7128;SDS011;3606;52.930;8.644;2024-03-02T09:09:43;11.23;;;8.00;;
7128;SDS011;3606;52.930;8.644;2024-03-02T09:12:08;11.17;;;8.33;;
7128;SDS011;3606;52.930;8.644;2024-03-02T09:14:34;11.97;;;8.40;;
7128;SDS011;3606;52.930;8.644;2024-03-02T09:17:01;11.50;;;7.93;;
7128;SDS011;3606;52.930;8.644;2024-03-02T09:19:28;9.63;;;7.60;;
7128;SDS011;3606;52.930;8.644;2024-03-02T09:21:54;12.40;;;8.03;;
7128;SDS011;3606;52.930;8.644;2024-03-02T09:24:21;10.27;;;7.40;;
7128;SDS011;3606;52.930;8.644;2024-03-02T09:26:46;12.87;;;8.10;;
7128;SDS011;3606;52.930;8.644;2024-03-02T09:29:12;9.90;;;7.37;;
7128;SDS011;3606;52.930;8.644;2024-03-02T09:31:41;12.30;;;7.73;;
7128;SDS011;3606;52.930;8.644;2024-03-02T09:34:08;10.77;;;7.03;;
7128;SDS011;3606;52.930;8.644;2024-03-02T09:36:33;8.63;;;7.07;;
7128;SDS011;3606;52.930;8.644;2024-03-02T09:38:59;8.03;;;6.37;;
7128;SDS011;3606;52.930;8.644;2024-03-02T09:41:25;8.23;;;6.60;;
7128;SDS011;3606;52.930;8.644;2024-03-02T09:43:50;9.23;;;7.23;;
7128;SDS011;3606;52.930;8.644;2024-03-02T09:46:16;9.37;;;6.87;;
7128;SDS011;3606;52.930;8.644;2024-03-02T09:48:44;13.73;;;7.20;;
7128;SDS011;3606;52.930;8.644;2024-03-02T09:51:10;11.03;;;6.57;;
7128;SDS011;3606;52.930;8.644;2024-03-02T09:53:37;11.50;;;7.10;;
7128;SDS011;3606;52.930;8.644;2024-03-02T09:56:03;10.97;;;7.00;;
7128;SDS011;3606;52.930;8.644;2024-03-02T09:58:29;10.60;;;7.17;;
7128;SDS011;3606;52.930;8.644;2024-03-02T10:00:55;11.43;;;7.00;;
7128;SDS011;3606;52.930;8.644;2024-03-02T10:03:22;8.67;;;6.97;;
7128;SDS011;3606;52.930;8.644;2024-03-02T10:05:52;8.73;;;6.87;;
7128;SDS011;3606;52.930;8.644;2024-03-02T10:08:17;8.83;;;6.43;;
7128;SDS011;3606;52.930;8.644;2024-03-02T10:10:43;9.30;;;6.67;;
7128;SDS011;3606;52.930;8.644;2024-03-02T10:13:12;9.67;;;6.77;;
7128;SDS011;3606;52.930;8.644;2024-03-02T10:15:39;8.17;;;5.43;;
7128;SDS011;3606;52.930;8.644;2024-03-02T10:18:09;10.50;;;6.80;;
7128;SDS011;3606;52.930;8.644;2024-03-02T10:20:36;9.50;;;6.50;;
7128;SDS011;3606;52.930;8.644;2024-03-02T10:23:10;9.73;;;6.17;;
7128;SDS011;3606;52.930;8.644;2024-03-02T10:25:37;6.67;;;5.97;;
7128;SDS011;3606;52.930;8.644;2024-03-02T10:28:03;8.77;;;6.10;;
7128;SDS011;3606;52.930;8.644;2024-03-02T10:30:31;8.57;;;6.50;;
7128;SDS011;3606;52.930;8.644;2024-03-02T10:32:57;7.77;;;6.10;;
7128;SDS011;3606;52.930;8.644;2024-03-02T10:35:23;9.07;;;6.50;;
7128;SDS011;3606;52.930;8.644;2024-03-02T10:37:54;9.57;;;6.07;;
7128;SDS011;3606;52.930;8.644;2024-03-02T10:40:23;7.30;;;6.03;;
7128;SDS011;3606;52.930;8.644;2024-03-02T10:42:52;6.40;;;5.67;;
7128;SDS011;3606;52.930;8.644;2024-03-02T10:45:19;8.20;;;5.47;;
7128;SDS011;3606;52.930;8.644;2024-03-02T10:47:47;6.97;;;6.00;;
7128;SDS011;3606;52.930;8.644;2024-03-02T10:50:13;8.83;;;6.43;;
7128;SDS011;3606;52.930;8.644;2024-03-02T10:52:38;8.33;;;5.80;;
7128;SDS011;3606;52.930;8.644;2024-03-02T10:55:05;9.20;;;6.03;;
7128;SDS011;3606;52.930;8.644;2024-03-02T10:57:53;7.03;;;5.70;;
7128;SDS011;3606;52.930;8.644;2024-03-02T11:00:19;8.80;;;5.60;;
7128;SDS011;3606;52.930;8.644;2024-03-02T11:02:51;6.93;;;5.83;;
7128;SDS011;3606;52.930;8.644;2024-03-02T11:05:27;7.07;;;5.50;;
7128;SDS011;3606;52.930;8.644;2024-03-02T11:08:05;7.20;;;6.00;;
7128;SDS011;3606;52.930;8.644;2024-03-02T11:10:36;8.57;;;6.30;;
7128;SDS011;3606;52.930;8.644;2024-03-02T11:13:08;8.43;;;5.60;;
7128;SDS011;3606;52.930;8.644;2024-03-02T11:15:36;7.30;;;6.07;;
7128;SDS011;3606;52.930;8.644;2024-03-02T11:18:03;8.03;;;5.93;;
7128;SDS011;3606;52.930;8.644;2024-03-02T11:20:33;8.13;;;5.77;;
7128;SDS011;3606;52.930;8.644;2024-03-02T11:23:08;9.67;;;6.77;;
7128;SDS011;3606;52.930;8.644;2024-03-02T11:25:35;8.03;;;5.90;;
7128;SDS011;3606;52.930;8.644;2024-03-02T11:28:02;6.07;;;5.43;;
7128;SDS011;3606;52.930;8.644;2024-03-02T11:32:57;8.47;;;6.03;;
7128;SDS011;3606;52.930;8.644;2024-03-02T11:35:27;9.63;;;5.83;;
7128;SDS011;3606;52.930;8.644;2024-03-02T11:37:56;7.90;;;5.67;;
7128;SDS011;3606;52.930;8.644;2024-03-02T11:40:30;7.77;;;5.60;;
7128;SDS011;3606;52.930;8.644;2024-03-02T11:42:59;11.00;;;5.70;;
7128;SDS011;3606;52.930;8.644;2024-03-02T11:45:28;7.43;;;5.90;;
7128;SDS011;3606;52.930;8.644;2024-03-02T11:47:55;6.03;;;5.17;;
7128;SDS011;3606;52.930;8.644;2024-03-02T11:50:35;8.53;;;5.23;;
7128;SDS011;3606;52.930;8.644;2024-03-02T11:53:05;6.50;;;4.83;;
7128;SDS011;3606;52.930;8.644;2024-03-02T11:55:33;6.57;;;5.03;;
7128;SDS011;3606;52.930;8.644;2024-03-02T11:58:01;6.87;;;5.03;;
7128;SDS011;3606;52.930;8.644;2024-03-02T12:00:28;5.27;;;4.30;;
7128;SDS011;3606;52.930;8.644;2024-03-02T12:03:01;6.23;;;4.40;;
7128;SDS011;3606;52.930;8.644;2024-03-02T12:05:34;6.37;;;4.30;;
7128;SDS011;3606;52.930;8.644;2024-03-02T12:08:01;5.60;;;4.37;;
7128;SDS011;3606;52.930;8.644;2024-03-02T12:10:31;5.43;;;4.07;;
7128;SDS011;3606;52.930;8.644;2024-03-02T12:15:28;6.70;;;4.60;;
7128;SDS011;3606;52.930;8.644;2024-03-02T12:17:58;5.30;;;4.07;;
7128;SDS011;3606;52.930;8.644;2024-03-02T12:20:25;5.37;;;3.90;;
7128;SDS011;3606;52.930;8.644;2024-03-02T12:22:53;6.27;;;4.47;;
7128;SDS011;3606;52.930;8.644;2024-03-02T12:25:20;5.33;;;4.60;;
7128;SDS011;3606;52.930;8.644;2024-03-02T12:27:49;6.87;;;4.97;;
7128;SDS011;3606;52.930;8.644;2024-03-02T12:30:17;6.30;;;4.67;;
7128;SDS011;3606;52.930;8.644;2024-03-02T12:32:43;6.67;;;5.23;;
7128;SDS011;3606;52.930;8.644;2024-03-02T12:35:10;7.07;;;5.33;;
7128;SDS011;3606;52.930;8.644;2024-03-02T12:37:49;6.07;;;5.23;;
7128;SDS011;3606;52.930;8.644;2024-03-02T12:40:18;6.63;;;5.00;;
7128;SDS011;3606;52.930;8.644;2024-03-02T12:42:45;7.23;;;6.00;;
7128;SDS011;3606;52.930;8.644;2024-03-02T12:45:12;7.07;;;5.37;;
7128;SDS011;3606;52.930;8.644;2024-03-02T12:47:41;6.27;;;5.47;;
7128;SDS011;3606;52.930;8.644;2024-03-02T12:50:08;6.07;;;5.27;;
7128;SDS011;3606;52.930;8.644;2024-03-02T12:52:34;9.33;;;6.10;;
7128;SDS011;3606;52.930;8.644;2024-03-02T12:55:02;9.27;;;6.10;;
7128;SDS011;3606;52.930;8.644;2024-03-02T12:57:30;7.30;;;5.60;;
7128;SDS011;3606;52.930;8.644;2024-03-02T13:00:06;6.47;;;5.23;;
7128;SDS011;3606;52.930;8.644;2024-03-02T13:02:36;7.50;;;5.60;;
7128;SDS011;3606;52.930;8.644;2024-03-02T13:05:06;6.50;;;5.10;;
7128;SDS011;3606;52.930;8.644;2024-03-02T13:07:36;8.13;;;6.17;;
7128;SDS011;3606;52.930;8.644;2024-03-02T13:10:02;6.70;;;5.40;;
7128;SDS011;3606;52.930;8.644;2024-03-02T13:12:29;7.10;;;5.40;;
7128;SDS011;3606;52.930;8.644;2024-03-02T13:14:57;6.53;;;4.90;;
7128;SDS011;3606;52.930;8.644;2024-03-02T13:17:27;6.63;;;4.90;;
7128;SDS011;3606;52.930;8.644;2024-03-02T13:19:56;7.20;;;4.87;;
7128;SDS011;3606;52.930;8.644;2024-03-02T13:22:23;7.37;;;5.20;;
7128;SDS011;3606;52.930;8.644;2024-03-02T13:24:53;6.83;;;5.20;;
7128;SDS011;3606;52.930;8.644;2024-03-02T13:27:22;8.73;;;5.50;;
7128;SDS011;3606;52.930;8.644;2024-03-02T13:29:48;6.53;;;5.17;;
7128;SDS011;3606;52.930;8.644;2024-03-02T13:32:14;9.43;;;5.23;;
7128;SDS011;3606;52.930;8.644;2024-03-02T13:34:48;4.87;;;4.17;;
7128;SDS011;3606;52.930;8.644;2024-03-02T13:37:14;6.00;;;4.50;;
7128;SDS011;3606;52.930;8.644;2024-03-02T13:39:40;5.03;;;4.40;;
7128;SDS011;3606;52.930;8.644;2024-03-02T13:42:10;6.73;;;4.77;;
7128;SDS011;3606;52.930;8.644;2024-03-02T13:44:36;4.80;;;4.20;;
7128;SDS011;3606;52.930;8.644;2024-03-02T13:47:02;5.67;;;4.33;;
7128;SDS011;3606;52.930;8.644;2024-03-02T13:49:29;5.33;;;3.80;;
7128;SDS011;3606;52.930;8.644;2024-03-02T13:52:04;6.40;;;4.73;;
7128;SDS011;3606;52.930;8.644;2024-03-02T13:54:39;5.47;;;4.47;;
7128;SDS011;3606;52.930;8.644;2024-03-02T13:57:06;5.67;;;4.20;;
7128;SDS011;3606;52.930;8.644;2024-03-02T13:59:33;7.03;;;4.40;;
7128;SDS011;3606;52.930;8.644;2024-03-02T14:02:02;4.93;;;4.00;;
7128;SDS011;3606;52.930;8.644;2024-03-02T14:04:30;6.40;;;4.10;;
7128;SDS011;3606;52.930;8.644;2024-03-02T14:06:57;6.53;;;4.10;;
7128;SDS011;3606;52.930;8.644;2024-03-02T14:09:22;5.67;;;3.63;;
7128;SDS011;3606;52.930;8.644;2024-03-02T14:11:49;5.93;;;4.50;;
7128;SDS011;3606;52.930;8.644;2024-03-02T14:14:16;4.90;;;4.03;;
7128;SDS011;3606;52.930;8.644;2024-03-02T14:16:42;5.97;;;4.47;;
7128;SDS011;3606;52.930;8.644;2024-03-02T14:19:07;6.17;;;3.90;;
7128;SDS011;3606;52.930;8.644;2024-03-02T14:21:34;6.23;;;4.23;;
7128;SDS011;3606;52.930;8.644;2024-03-02T14:24:01;5.10;;;3.80;;
7128;SDS011;3606;52.930;8.644;2024-03-02T14:26:26;3.73;;;3.30;;
7128;SDS011;3606;52.930;8.644;2024-03-02T14:28:53;5.77;;;3.30;;
7128;SDS011;3606;52.930;8.644;2024-03-02T14:31:19;3.40;;;3.10;;
7128;SDS011;3606;52.930;8.644;2024-03-02T14:33:45;4.23;;;3.37;;
7128;SDS011;3606;52.930;8.644;2024-03-02T14:36:11;5.47;;;3.50;;
7128;SDS011;3606;52.930;8.644;2024-03-02T14:38:37;4.97;;;3.47;;
7128;SDS011;3606;52.930;8.644;2024-03-02T14:41:03;5.07;;;3.67;;
7128;SDS011;3606;52.930;8.644;2024-03-02T14:43:29;4.67;;;3.60;;
7128;SDS011;3606;52.930;8.644;2024-03-02T14:45:55;5.37;;;3.87;;
7128;SDS011;3606;52.930;8.644;2024-03-02T14:48:21;5.87;;;4.00;;
7128;SDS011;3606;52.930;8.644;2024-03-02T14:50:47;4.50;;;3.53;;
7128;SDS011;3606;52.930;8.644;2024-03-02T14:53:13;3.83;;;3.40;;
7128;SDS011;3606;52.930;8.644;2024-03-02T14:55:39;4.73;;;3.60;;
7128;SDS011;3606;52.930;8.644;2024-03-02T14:58:04;4.93;;;3.47;;
7128;SDS011;3606;52.930;8.644;2024-03-02T15:00:30;5.10;;;3.50;;
7128;SDS011;3606;52.930;8.644;2024-03-02T15:02:56;4.53;;;3.40;;
7128;SDS011;3606;52.930;8.644;2024-03-02T15:05:21;4.87;;;3.17;;
7128;SDS011;3606;52.930;8.644;2024-03-02T15:07:47;4.20;;;3.23;;
7128;SDS011;3606;52.930;8.644;2024-03-02T15:10:13;4.43;;;3.33;;